KMGR/MGR METAR and TAF weather

Enter ICAO airport designator
Station Type Date Time Source
KMGR METAR 2022/01/26 20:55 UTC NOAA

KMGR 262055Z AUTO 01008KT 10SM CLR 16/03 A3013 RMK AO2


Station Type Date Time Source
KMGR Decoded METAR 2022/01/26 20:55 UTC NOAA

Moultrie, Moultrie Municipal Airport, GA, United States (KMGR) 31-05-05N 083-48-11W
Jan 26, 2022 - 03:55 PM EST / 2022.01.26 2055 UTC
Wind: from the N (010 degrees) at 9 MPH (8 KT):0
Visibility: 10 mile(s):0
Sky conditions: clear
Temperature: 60 F (16 C)
Dew Point: 37 F (3 C)
Relative Humidity: 41%
Pressure (altimeter): 30.13 in. Hg (1020 hPa)
ob: KMGR 262055Z AUTO 01008KT 10SM CLR 16/03 A3013 RMK AO2
cycle: 21

Station Type Date Time Source
KMGR TAF UTC NOAA

Error!

Example: see airport list